Time;durP1;ratioP1;P1;durP2;ratioP2;P2;SDS_P1;SDS_P2;PMS_P1;PMS_P2;Temp;Humidity;BMP_temperature;BMP_pressure;BME280_temperature;BME280_humidity;BME280_pressure;Samples;Min_cycle;Max_cycle;Signal;HPM_P1;HPM_P2
2021/10/24 00:01:40;;;;;;;3.87;2.50;;;;;;;;;;4393135;32;20105;-62
2021/10/24 00:04:06;;;;;;;3.78;2.25;;;;;;;;;;4405678;32;20092;-63
2021/10/24 00:06:33;;;;;;;3.40;2.30;;;;;;;;;;4405615;32;20083;-62
2021/10/24 00:08:59;;;;;;;3.80;2.62;;;;;;;;;;4405418;32;20157;-63
2021/10/24 00:11:26;;;;;;;5.30;2.60;;;;;;;;;;4405674;32;20157;-61
2021/10/24 00:13:52;;;;;;;3.55;2.35;;;;;;;;;;4407145;32;20165;-62
2021/10/24 00:16:19;;;;;;;3.00;2.22;;;;;;;;;;4368502;32;20081;-61
2021/10/24 00:18:45;;;;;;;4.07;2.40;;;;;;;;;;4407377;32;20150;-63
2021/10/24 00:21:12;;;;;;;3.10;2.20;;;;;;;;;;4392872;32;20097;-62
2021/10/24 00:23:39;;;;;;;3.67;2.40;;;;;;;;;;4405426;32;20069;-62
2021/10/24 00:26:06;;;;;;;5.00;2.42;;;;;;;;;;4393068;32;20151;-63
2021/10/24 00:28:33;;;;;;;4.57;2.65;;;;;;;;;;4392663;32;20088;-62
2021/10/24 00:31:00;;;;;;;3.20;2.40;;;;;;;;;;4379858;32;20076;-62
2021/10/24 00:33:26;;;;;;;4.95;2.58;;;;;;;;;;4380782;32;20073;-63
2021/10/24 00:35:53;;;;;;;2.62;2.30;;;;;;;;;;4367937;32;20080;-62
2021/10/24 00:38:19;;;;;;;4.05;2.62;;;;;;;;;;4406905;32;20105;-62
2021/10/24 00:40:46;;;;;;;4.43;2.78;;;;;;;;;;4380523;32;20514;-62
2021/10/24 00:43:13;;;;;;;3.72;2.70;;;;;;;;;;4393094;32;20077;-62
2021/10/24 00:45:39;;;;;;;4.75;2.80;;;;;;;;;;4406903;32;20093;-62
2021/10/24 00:48:06;;;;;;;4.37;2.95;;;;;;;;;;4405038;32;20069;-62
2021/10/24 00:50:33;;;;;;;3.80;2.90;;;;;;;;;;4379750;32;20456;-63
2021/10/24 00:53:00;;;;;;;3.83;2.85;;;;;;;;;;4380488;32;20093;-61
2021/10/24 00:55:26;;;;;;;4.00;2.70;;;;;;;;;;4405787;32;20494;-61
2021/10/24 00:57:53;;;;;;;4.20;2.70;;;;;;;;;;4405251;32;20073;-64
2021/10/24 01:00:19;;;;;;;4.32;2.78;;;;;;;;;;4393397;32;20084;-63
2021/10/24 01:02:46;;;;;;;3.85;2.83;;;;;;;;;;4380195;32;20514;-62
2021/10/24 01:05:14;;;;;;;4.43;3.00;;;;;;;;;;4367531;32;20086;-62
2021/10/24 01:07:46;;;;;;;3.40;2.80;;;;;;;;;;4392624;32;20233;-63
2021/10/24 01:10:16;;;;;;;4.87;2.75;;;;;;;;;;4393001;32;20074;-63
2021/10/24 01:12:44;;;;;;;4.87;2.80;;;;;;;;;;4406143;32;20080;-63
2021/10/24 01:15:11;;;;;;;4.55;3.10;;;;;;;;;;4407640;32;20144;-63
2021/10/24 01:17:37;;;;;;;5.25;3.05;;;;;;;;;;4392701;32;20065;-63
2021/10/24 01:20:05;;;;;;;5.57;3.00;;;;;;;;;;4379860;32;20074;-62
2021/10/24 01:22:37;;;;;;;4.62;2.85;;;;;;;;;;4392664;32;20526;-62
2021/10/24 01:25:06;;;;;;;4.80;3.03;;;;;;;;;;4380477;32;20082;-62
2021/10/24 01:27:33;;;;;;;4.03;3.03;;;;;;;;;;4405487;32;20080;-62
2021/10/24 01:30:02;;;;;;;5.32;3.00;;;;;;;;;;4368052;32;20470;-63
2021/10/24 01:32:28;;;;;;;4.65;3.22;;;;;;;;;;4392612;32;20448;-62
2021/10/24 01:34:58;;;;;;;4.22;3.08;;;;;;;;;;4392867;32;20088;-63
2021/10/24 01:37:30;;;;;;;5.10;3.05;;;;;;;;;;4368111;32;20077;-64
2021/10/24 01:39:57;;;;;;;5.65;3.05;;;;;;;;;;4392322;32;20510;-63
2021/10/24 01:42:24;;;;;;;6.37;3.30;;;;;;;;;;4392784;32;20105;-61
2021/10/24 01:44:51;;;;;;;5.53;2.83;;;;;;;;;;4407536;32;20080;-62
2021/10/24 01:47:18;;;;;;;5.55;3.53;;;;;;;;;;4395094;32;20073;-63
2021/10/24 01:49:44;;;;;;;5.12;3.40;;;;;;;;;;4382997;32;20074;-62
2021/10/24 01:52:11;;;;;;;5.00;3.50;;;;;;;;;;4395724;32;20085;-63
2021/10/24 01:54:37;;;;;;;5.62;3.50;;;;;;;;;;4409799;32;20454;-63
2021/10/24 01:57:04;;;;;;;6.60;3.80;;;;;;;;;;4408670;32;20515;-63
2021/10/24 01:59:30;;;;;;;5.18;3.80;;;;;;;;;;4394935;32;20085;-62
2021/10/24 02:01:57;;;;;;;5.70;4.30;;;;;;;;;;4394943;32;20088;-63
2021/10/24 02:04:24;;;;;;;6.50;3.80;;;;;;;;;;4382064;32;20173;-62
2021/10/24 02:06:50;;;;;;;6.47;4.50;;;;;;;;;;4407490;32;20081;-63
2021/10/24 02:09:17;;;;;;;6.35;4.28;;;;;;;;;;4407936;32;20451;-62
2021/10/24 02:11:43;;;;;;;5.78;3.87;;;;;;;;;;4394874;32;20616;-63
2021/10/24 02:14:09;;;;;;;5.62;4.20;;;;;;;;;;4407875;32;20451;-63
2021/10/24 02:16:36;;;;;;;6.50;4.20;;;;;;;;;;4407087;32;20073;-63
2021/10/24 02:19:03;;;;;;;5.97;3.97;;;;;;;;;;4394811;32;20084;-62
2021/10/24 02:21:30;;;;;;;6.00;4.07;;;;;;;;;;4394596;32;20085;-62
2021/10/24 02:23:56;;;;;;;5.55;3.62;;;;;;;;;;4394819;32;20077;-63
2021/10/24 02:26:23;;;;;;;5.68;4.05;;;;;;;;;;4381849;32;20078;-63
2021/10/24 02:28:50;;;;;;;5.80;4.10;;;;;;;;;;4394706;32;20105;-63
2021/10/24 02:31:17;;;;;;;5.12;3.70;;;;;;;;;;4406832;32;20146;-63
2021/10/24 02:33:43;;;;;;;5.35;3.47;;;;;;;;;;4382009;32;20108;-62
2021/10/24 02:36:10;;;;;;;5.18;3.45;;;;;;;;;;4407846;32;20120;-63
2021/10/24 02:38:36;;;;;;;5.03;3.53;;;;;;;;;;4394437;32;20595;-63
2021/10/24 02:41:03;;;;;;;5.65;3.67;;;;;;;;;;4382182;32;20081;-62
2021/10/24 02:43:30;;;;;;;5.07;3.30;;;;;;;;;;4381498;32;20073;-63
2021/10/24 02:45:56;;;;;;;5.12;3.03;;;;;;;;;;4393932;32;20078;-62
2021/10/24 02:48:23;;;;;;;4.62;3.20;;;;;;;;;;4394372;32;20086;-63
2021/10/24 02:50:50;;;;;;;5.65;3.28;;;;;;;;;;4382058;32;20447;-63
2021/10/24 02:53:16;;;;;;;4.80;3.70;;;;;;;;;;4406744;32;20467;-62
2021/10/24 02:55:43;;;;;;;5.18;3.75;;;;;;;;;;4394123;32;20078;-62
2021/10/24 02:58:10;;;;;;;7.03;3.67;;;;;;;;;;4381266;32;20092;-62
2021/10/24 03:00:36;;;;;;;4.50;3.10;;;;;;;;;;4406667;32;20155;-62
2021/10/24 03:03:03;;;;;;;5.00;3.60;;;;;;;;;;4406277;32;20153;-63
2021/10/24 03:05:29;;;;;;;5.20;3.60;;;;;;;;;;4381796;32;20092;-62
2021/10/24 03:07:56;;;;;;;4.70;3.20;;;;;;;;;;4381867;32;20181;-62
2021/10/24 03:10:22;;;;;;;5.18;3.50;;;;;;;;;;4406645;32;20088;-62
2021/10/24 03:12:49;;;;;;;4.80;3.50;;;;;;;;;;4394114;32;20077;-63
2021/10/24 03:15:15;;;;;;;5.78;3.58;;;;;;;;;;4406708;32;20101;-63
2021/10/24 03:17:41;;;;;;;5.40;3.60;;;;;;;;;;4406174;32;20173;-63
2021/10/24 03:20:09;;;;;;;5.43;3.90;;;;;;;;;;4393237;32;20081;-63
2021/10/24 03:22:36;;;;;;;6.18;3.70;;;;;;;;;;4394015;32;20516;-62
2021/10/24 03:25:02;;;;;;;5.60;3.65;;;;;;;;;;4393811;32;20567;-63
2021/10/24 03:27:29;;;;;;;6.47;3.87;;;;;;;;;;4406660;32;20062;-63
2021/10/24 03:29:58;;;;;;;5.57;3.83;;;;;;;;;;4396391;32;20080;-62
2021/10/24 03:32:24;;;;;;;5.85;3.75;;;;;;;;;;4397518;32;20158;-62
2021/10/24 03:34:51;;;;;;;6.35;3.95;;;;;;;;;;4409111;32;20084;-62
2021/10/24 03:37:17;;;;;;;5.95;3.92;;;;;;;;;;4396485;32;20160;-63
2021/10/24 03:39:45;;;;;;;7.28;4.60;;;;;;;;;;4395842;32;20084;-62
2021/10/24 03:42:11;;;;;;;7.32;4.37;;;;;;;;;;4371275;32;20518;-62
2021/10/24 03:44:38;;;;;;;6.55;4.10;;;;;;;;;;4407957;32;20062;-61
2021/10/24 03:47:05;;;;;;;6.40;3.95;;;;;;;;;;4382118;32;20484;-62
2021/10/24 03:49:31;;;;;;;5.37;3.80;;;;;;;;;;4408012;32;20421;-63
2021/10/24 03:51:58;;;;;;;6.68;4.37;;;;;;;;;;4395635;32;20076;-61
2021/10/24 03:54:25;;;;;;;6.30;4.30;;;;;;;;;;4407714;32;20503;-63
2021/10/24 03:56:52;;;;;;;5.60;4.30;;;;;;;;;;4367946;32;20076;-62
2021/10/24 03:59:19;;;;;;;5.68;4.30;;;;;;;;;;4405921;32;20165;-62
2021/10/24 04:01:45;;;;;;;6.28;4.30;;;;;;;;;;4405782;32;20065;-63
2021/10/24 04:04:12;;;;;;;6.28;4.10;;;;;;;;;;4368513;32;20150;-63
2021/10/24 04:06:38;;;;;;;7.00;4.43;;;;;;;;;;4393098;32;20089;-63
2021/10/24 04:09:05;;;;;;;6.43;4.32;;;;;;;;;;4405988;32;20065;-63
2021/10/24 04:11:32;;;;;;;6.60;4.62;;;;;;;;;;4380199;32;20097;-61
2021/10/24 04:13:58;;;;;;;6.70;4.35;;;;;;;;;;4405025;32;20101;-62
2021/10/24 04:16:24;;;;;;;7.35;4.45;;;;;;;;;;4393773;32;20058;-62
2021/10/24 04:18:51;;;;;;;6.30;4.20;;;;;;;;;;4407200;32;20149;-62
2021/10/24 04:21:18;;;;;;;7.62;4.53;;;;;;;;;;4380564;32;20093;-61
2021/10/24 04:23:44;;;;;;;6.60;4.28;;;;;;;;;;4405487;32;20077;-63
2021/10/24 04:26:11;;;;;;;7.07;4.32;;;;;;;;;;4392461;32;20504;-63
2021/10/24 04:28:37;;;;;;;7.07;4.62;;;;;;;;;;4380292;32;20429;-63
2021/10/24 04:31:04;;;;;;;5.87;4.62;;;;;;;;;;4406926;32;20223;-62
2021/10/24 04:33:30;;;;;;;7.85;4.97;;;;;;;;;;4392666;32;20165;-62
2021/10/24 04:35:57;;;;;;;6.12;4.10;;;;;;;;;;4405114;32;20074;-63
2021/10/24 04:38:23;;;;;;;6.62;4.53;;;;;;;;;;4380579;32;20141;-62
2021/10/24 04:40:50;;;;;;;7.10;4.40;;;;;;;;;;4380416;32;20069;-62
2021/10/24 04:43:17;;;;;;;6.12;4.32;;;;;;;;;;4405602;32;20536;-63
2021/10/24 04:45:44;;;;;;;8.55;4.82;;;;;;;;;;4421334;32;20030;-63
2021/10/24 04:48:10;;;;;;;6.12;4.20;;;;;;;;;;4426860;32;20075;-63
2021/10/24 04:50:37;;;;;;;6.35;4.18;;;;;;;;;;4418855;32;20172;-61
2021/10/24 04:53:07;;;;;;;7.40;4.45;;;;;;;;;;4406509;32;20065;-63
2021/10/24 04:55:34;;;;;;;7.25;4.15;;;;;;;;;;4380228;32;20065;-62
2021/10/24 04:58:01;;;;;;;6.75;4.30;;;;;;;;;;4380373;32;20506;-63
2021/10/24 05:00:28;;;;;;;6.50;3.90;;;;;;;;;;4392457;32;20076;-62
2021/10/24 05:02:55;;;;;;;6.37;4.50;;;;;;;;;;4380382;32;20507;-62
2021/10/24 05:05:22;;;;;;;6.12;4.12;;;;;;;;;;4367914;32;20112;-61
2021/10/24 05:07:48;;;;;;;5.82;3.95;;;;;;;;;;4405357;32;20087;-63
2021/10/24 05:10:15;;;;;;;8.82;4.22;;;;;;;;;;4392300;32;20089;-63
2021/10/24 05:12:41;;;;;;;6.65;3.92;;;;;;;;;;4405412;32;20069;-63
2021/10/24 05:15:08;;;;;;;5.35;3.33;;;;;;;;;;4392542;32;20503;-61
2021/10/24 05:17:34;;;;;;;4.62;3.50;;;;;;;;;;4380144;32;20064;-62
2021/10/24 05:20:01;;;;;;;6.12;3.40;;;;;;;;;;4383103;32;20077;-62
2021/10/24 05:22:28;;;;;;;4.22;3.10;;;;;;;;;;4408787;32;20093;-63
2021/10/24 05:24:54;;;;;;;5.53;3.67;;;;;;;;;;4383879;32;20070;-63
2021/10/24 05:27:21;;;;;;;5.03;3.58;;;;;;;;;;4395859;32;20084;-62
2021/10/24 05:29:48;;;;;;;5.53;3.50;;;;;;;;;;4383343;32;20070;-63
2021/10/24 05:32:14;;;;;;;5.18;3.28;;;;;;;;;;4408220;32;20097;-62
2021/10/24 05:34:42;;;;;;;5.18;3.55;;;;;;;;;;4394997;32;20527;-62
2021/10/24 05:37:09;;;;;;;4.07;3.08;;;;;;;;;;4395319;32;20085;-64
2021/10/24 05:39:36;;;;;;;4.53;3.20;;;;;;;;;;4395394;32;20152;-63
2021/10/24 05:42:02;;;;;;;6.12;3.45;;;;;;;;;;4395052;32;20086;-61
2021/10/24 05:44:29;;;;;;;5.95;3.08;;;;;;;;;;4395608;32;20084;-63
2021/10/24 05:46:56;;;;;;;6.10;3.20;;;;;;;;;;4370201;32;20081;-62
2021/10/24 05:49:23;;;;;;;4.55;3.00;;;;;;;;;;4395128;32;20097;-62
2021/10/24 05:51:50;;;;;;;4.22;3.05;;;;;;;;;;4407699;32;20072;-63
2021/10/24 05:54:17;;;;;;;3.75;2.45;;;;;;;;;;4382932;32;20105;-63
2021/10/24 05:56:43;;;;;;;6.03;2.95;;;;;;;;;;4382033;32;20590;-62
2021/10/24 05:59:10;;;;;;;4.30;2.87;;;;;;;;;;4408934;32;20459;-62
2021/10/24 06:01:36;;;;;;;4.68;3.10;;;;;;;;;;4408414;32;20156;-62
2021/10/24 06:04:03;;;;;;;5.57;3.05;;;;;;;;;;4370443;32;20089;-64
2021/10/24 06:06:30;;;;;;;4.60;2.83;;;;;;;;;;4382259;32;20087;-62
2021/10/24 06:08:59;;;;;;;5.70;3.17;;;;;;;;;;4395020;32;20074;-62
2021/10/24 06:11:28;;;;;;;6.10;2.87;;;;;;;;;;4382767;32;20078;-62
2021/10/24 06:13:55;;;;;;;4.30;3.00;;;;;;;;;;4383051;32;20074;-62
2021/10/24 06:16:22;;;;;;;5.15;2.97;;;;;;;;;;4382697;32;20084;-62
2021/10/24 06:18:49;;;;;;;5.30;2.87;;;;;;;;;;4382745;32;20074;-62
2021/10/24 06:21:16;;;;;;;5.37;3.00;;;;;;;;;;4394658;32;20077;-63
2021/10/24 06:23:43;;;;;;;5.87;3.15;;;;;;;;;;4370176;32;20078;-63
2021/10/24 06:26:09;;;;;;;4.62;2.90;;;;;;;;;;4408318;32;20153;-62
2021/10/24 06:28:36;;;;;;;5.37;3.00;;;;;;;;;;4415185;32;20065;-62
2021/10/24 06:31:03;;;;;;;5.45;3.17;;;;;;;;;;4388090;32;20077;-64
2021/10/24 06:33:29;;;;;;;5.10;2.90;;;;;;;;;;4407753;32;20165;-62
2021/10/24 06:35:56;;;;;;;5.32;3.00;;;;;;;;;;4381741;32;20470;-62
2021/10/24 06:38:22;;;;;;;4.80;2.80;;;;;;;;;;4394828;32;20065;-62
2021/10/24 06:40:52;;;;;;;5.07;2.80;;;;;;;;;;4394739;32;20085;-62
2021/10/24 06:43:18;;;;;;;5.80;2.95;;;;;;;;;;4406857;32;20084;-63
2021/10/24 06:45:45;;;;;;;4.82;2.85;;;;;;;;;;4381999;32;20087;-63
2021/10/24 06:48:13;;;;;;;6.30;3.45;;;;;;;;;;4382033;32;20101;-63
2021/10/24 06:50:39;;;;;;;6.12;3.00;;;;;;;;;;4407090;32;20076;-63
2021/10/24 06:53:06;;;;;;;4.55;2.97;;;;;;;;;;4407024;32;20528;-62
2021/10/24 06:55:32;;;;;;;4.72;2.90;;;;;;;;;;4407244;32;20171;-63
2021/10/24 06:57:59;;;;;;;5.70;3.15;;;;;;;;;;4406389;32;20081;-61
2021/10/24 07:00:27;;;;;;;4.62;2.92;;;;;;;;;;4394100;32;20080;-61
2021/10/24 07:02:53;;;;;;;4.85;2.97;;;;;;;;;;4408229;32;20076;-62
2021/10/24 07:05:20;;;;;;;4.22;2.85;;;;;;;;;;4394449;32;20073;-62
2021/10/24 07:07:47;;;;;;;4.15;2.75;;;;;;;;;;4381806;32;20074;-63
2021/10/24 07:10:16;;;;;;;3.35;2.70;;;;;;;;;;4369061;32;20249;-61
2021/10/24 07:12:43;;;;;;;5.97;3.62;;;;;;;;;;4381453;32;20073;-62
2021/10/24 07:15:10;;;;;;;4.37;3.15;;;;;;;;;;4406985;32;20073;-61
2021/10/24 07:17:37;;;;;;;4.22;2.70;;;;;;;;;;4381164;32;20074;-61
2021/10/24 07:20:05;;;;;;;6.25;3.05;;;;;;;;;;4382095;32;20455;-62
2021/10/24 07:22:31;;;;;;;7.28;3.62;;;;;;;;;;4394052;32;20181;-62
2021/10/24 07:24:58;;;;;;;6.25;3.60;;;;;;;;;;4406216;32;20089;-61
2021/10/24 07:27:24;;;;;;;5.35;3.00;;;;;;;;;;4393749;32;20132;-62
2021/10/24 07:29:51;;;;;;;4.87;3.00;;;;;;;;;;4393681;32;20088;-61
2021/10/24 07:32:18;;;;;;;6.57;3.62;;;;;;;;;;4381718;32;20100;-63
2021/10/24 07:34:45;;;;;;;6.07;3.28;;;;;;;;;;4393906;32;20092;-63
2021/10/24 07:37:11;;;;;;;5.55;2.97;;;;;;;;;;4405702;32;20528;-62
2021/10/24 07:39:38;;;;;;;6.12;3.42;;;;;;;;;;4393711;32;20062;-62
2021/10/24 07:42:05;;;;;;;5.78;3.50;;;;;;;;;;4367993;32;20069;-62
2021/10/24 07:44:32;;;;;;;5.25;3.50;;;;;;;;;;4393886;32;20447;-62
2021/10/24 07:46:59;;;;;;;4.40;3.17;;;;;;;;;;4380744;32;20077;-62
2021/10/24 07:49:26;;;;;;;5.05;3.03;;;;;;;;;;4393869;32;20060;-63
2021/10/24 07:51:52;;;;;;;5.72;3.25;;;;;;;;;;4381038;32;20089;-61
2021/10/24 07:54:19;;;;;;;6.22;3.42;;;;;;;;;;4381215;32;20097;-63
2021/10/24 07:56:46;;;;;;;7.70;4.10;;;;;;;;;;4405544;32;20090;-63
2021/10/24 07:59:13;;;;;;;5.82;3.17;;;;;;;;;;4394722;32;20085;-61
2021/10/24 08:01:40;;;;;;;6.30;3.28;;;;;;;;;;4368378;32;20112;-63
2021/10/24 08:04:07;;;;;;;5.22;3.00;;;;;;;;;;4381162;32;20153;-62
2021/10/24 08:06:35;;;;;;;4.20;2.70;;;;;;;;;;4368692;32;20070;-62
2021/10/24 08:09:04;;;;;;;4.20;2.50;;;;;;;;;;4397194;32;20087;-61
2021/10/24 08:11:30;;;;;;;5.82;2.95;;;;;;;;;;4395727;32;20161;-63
2021/10/24 08:13:58;;;;;;;4.70;3.00;;;;;;;;;;4394021;32;20519;-63
2021/10/24 08:16:25;;;;;;;3.30;2.40;;;;;;;;;;4393342;32;20089;-63
2021/10/24 08:18:52;;;;;;;5.12;3.47;;;;;;;;;;4393458;32;20092;-62
2021/10/24 08:21:19;;;;;;;3.97;3.00;;;;;;;;;;4405347;32;20069;-62
2021/10/24 08:23:45;;;;;;;4.37;2.78;;;;;;;;;;4380715;32;20085;-62
2021/10/24 08:26:14;;;;;;;5.30;3.10;;;;;;;;;;4381150;32;20089;-63
2021/10/24 08:28:41;;;;;;;6.32;3.30;;;;;;;;;;4368206;32;20170;-62
2021/10/24 08:31:07;;;;;;;4.85;2.90;;;;;;;;;;4380641;32;20498;-64
2021/10/24 08:33:34;;;;;;;4.65;2.90;;;;;;;;;;4367462;32;20168;-62
2021/10/24 08:36:01;;;;;;;5.75;3.20;;;;;;;;;;4393529;32;20085;-63
2021/10/24 08:38:28;;;;;;;4.70;3.00;;;;;;;;;;4368273;32;20085;-63
2021/10/24 08:40:57;;;;;;;4.45;3.03;;;;;;;;;;4381070;32;20074;-61
2021/10/24 08:43:35;;;;;;;8.48;2.90;;;;;;;;;;4380429;32;20069;-63
2021/10/24 08:46:01;;;;;;;4.55;3.17;;;;;;;;;;4381883;32;20153;-63
2021/10/24 08:48:31;;;;;;;4.95;3.10;;;;;;;;;;4380460;32;20072;-62
2021/10/24 08:50:57;;;;;;;5.65;3.50;;;;;;;;;;4392605;32;20104;-63
2021/10/24 08:53:28;;;;;;;5.37;3.62;;;;;;;;;;4405155;32;20495;-63
2021/10/24 08:55:55;;;;;;;8.63;3.22;;;;;;;;;;4368084;32;20173;-61
2021/10/24 08:58:21;;;;;;;4.30;3.10;;;;;;;;;;4380041;32;20093;-62
2021/10/24 09:00:49;;;;;;;5.80;3.33;;;;;;;;;;4367632;32;20512;-62
2021/10/24 09:03:16;;;;;;;6.32;3.83;;;;;;;;;;4413019;32;20073;-62
2021/10/24 09:05:43;;;;;;;6.32;3.50;;;;;;;;;;4416037;32;20094;-63
2021/10/24 09:08:21;;;;;;;5.85;2.90;;;;;;;;;;4380596;32;20074;-63
2021/10/24 09:10:48;;;;;;;4.62;3.25;;;;;;;;;;4381051;32;20123;-63
2021/10/24 09:13:27;;;;;;;5.03;3.15;;;;;;;;;;4405751;32;20534;-62
2021/10/24 09:15:55;;;;;;;5.22;2.78;;;;;;;;;;4381000;32;20087;-62
2021/10/24 09:18:23;;;;;;;6.00;3.28;;;;;;;;;;4379928;32;20478;-63
2021/10/24 09:20:50;;;;;;;6.12;3.00;;;;;;;;;;4406757;32;20080;-63
2021/10/24 09:23:16;;;;;;;4.87;3.33;;;;;;;;;;4392905;32;20080;-63
2021/10/24 09:25:57;;;;;;;4.25;3.10;;;;;;;;;;4392425;32;20073;-63
2021/10/24 09:28:25;;;;;;;4.00;2.67;;;;;;;;;;4392357;32;20463;-63
2021/10/24 09:31:04;;;;;;;3.90;2.50;;;;;;;;;;4368257;32;20102;-64
2021/10/24 09:33:47;;;;;;;4.22;2.60;;;;;;;;;;4380205;32;20062;-63
2021/10/24 09:36:22;;;;;;;3.47;2.72;;;;;;;;;;4379929;32;20085;-63
2021/10/24 09:38:49;;;;;;;3.58;2.70;;;;;;;;;;4381256;32;20089;-63
2021/10/24 09:41:15;;;;;;;4.75;2.75;;;;;;;;;;4379847;32;20487;-63
2021/10/24 09:43:43;;;;;;;3.40;2.50;;;;;;;;;;4405197;32;20084;-63
2021/10/24 09:46:11;;;;;;;4.25;2.70;;;;;;;;;;4380200;32;20089;-62
2021/10/24 09:48:41;;;;;;;4.43;2.72;;;;;;;;;;4392818;32;20077;-61
2021/10/24 09:51:11;;;;;;;4.32;2.75;;;;;;;;;;4368135;32;20076;-63
2021/10/24 09:53:39;;;;;;;5.82;2.58;;;;;;;;;;4380430;32;20090;-62
2021/10/24 09:56:17;;;;;;;6.45;3.00;;;;;;;;;;4391887;32;20073;-63
2021/10/24 09:58:46;;;;;;;3.47;2.10;;;;;;;;;;4367386;32;20162;-62
2021/10/24 10:01:14;;;;;;;4.05;2.12;;;;;;;;;;4392538;32;20081;-63
2021/10/24 10:03:40;;;;;;;6.95;2.70;;;;;;;;;;4380192;32;20095;-63
2021/10/24 10:06:07;;;;;;;3.60;2.60;;;;;;;;;;4382832;32;20224;-63
2021/10/24 10:08:37;;;;;;;5.62;2.40;;;;;;;;;;4408300;32;20081;-62
2021/10/24 10:11:12;;;;;;;3.33;2.20;;;;;;;;;;4407898;32;20084;-63
2021/10/24 10:13:42;;;;;;;3.72;2.40;;;;;;;;;;4407414;32;20077;-63
2021/10/24 10:16:12;;;;;;;3.72;2.40;;;;;;;;;;4382377;32;20505;-64
2021/10/24 10:18:57;;;;;;;5.43;2.08;;;;;;;;;;4407421;32;20081;-63
2021/10/24 10:21:34;;;;;;;3.92;2.10;;;;;;;;;;4407356;32;20069;-62
2021/10/24 10:24:04;;;;;;;4.00;2.10;;;;;;;;;;4395637;32;20069;-63
2021/10/24 10:26:32;;;;;;;3.10;2.35;;;;;;;;;;4382516;32;20076;-63
2021/10/24 10:28:59;;;;;;;5.25;2.20;;;;;;;;;;4369960;32;20090;-62
2021/10/24 10:31:26;;;;;;;2.87;1.92;;;;;;;;;;4382437;32;20496;-61
2021/10/24 10:34:00;;;;;;;2.58;1.45;;;;;;;;;;4382138;32;20066;-62
2021/10/24 10:37:00;;;;;;;3.42;2.20;;;;;;;;;;4394916;32;20237;-64
2021/10/24 10:39:35;;;;;;;1.15;1.02;;;;;;;;;;4361932;32;20082;-63
2021/10/24 10:42:28;;;;;;;2.65;2.10;;;;;;;;;;4407330;32;20075;-63
2021/10/24 10:45:16;;;;;;;4.62;2.40;;;;;;;;;;4407030;32;20093;-62
2021/10/24 10:47:50;;;;;;;4.95;1.98;;;;;;;;;;4394531;32;20088;-63
2021/10/24 10:50:43;;;;;;;2.87;1.98;;;;;;;;;;4395162;32;20566;-61
2021/10/24 10:53:44;;;;;;;3.78;2.10;;;;;;;;;;4394506;32;20083;-62
2021/10/24 10:56:21;;;;;;;4.03;2.22;;;;;;;;;;4406296;32;20089;-62
2021/10/24 10:58:47;;;;;;;;;;;;;;;;;;4407461;32;20074;-62
2021/10/24 11:01:18;;;;;;;4.05;2.20;;;;;;;;;;4408522;32;20398;-63
2021/10/24 11:03:46;;;;;;;3.75;2.25;;;;;;;;;;4394241;32;20152;-62
2021/10/24 11:06:28;;;;;;;3.30;2.17;;;;;;;;;;4382092;32;20169;-63
2021/10/24 11:09:02;;;;;;;3.83;2.25;;;;;;;;;;4406891;32;20096;-63
2021/10/24 11:11:38;;;;;;;4.68;2.10;;;;;;;;;;4381842;32;20074;-63
2021/10/24 11:14:10;;;;;;;4.37;2.20;;;;;;;;;;4408280;32;20615;-64
2021/10/24 11:16:49;;;;;;;3.67;1.90;;;;;;;;;;4406725;32;20085;-62
2021/10/24 11:19:29;;;;;;;2.45;1.62;;;;;;;;;;4393724;32;20091;-63
2021/10/24 11:21:55;;;;;;;3.03;1.80;;;;;;;;;;4393931;32;20132;-62
2021/10/24 11:24:40;;;;;;;3.53;1.70;;;;;;;;;;4406666;32;20101;-62
2021/10/24 11:27:09;;;;;;;3.62;1.90;;;;;;;;;;4381797;32;20523;-63
2021/10/24 11:29:36;;;;;;;4.43;1.90;;;;;;;;;;4394483;32;20093;-62
2021/10/24 11:32:23;;;;;;;2.83;1.85;;;;;;;;;;4394184;32;20588;-64
2021/10/24 11:34:50;;;;;;;2.05;1.48;;;;;;;;;;4395658;32;20463;-61
2021/10/24 11:37:17;;;;;;;3.03;1.80;;;;;;;;;;4397296;32;20061;-70
2021/10/24 11:39:48;;;;;;;2.72;1.85;;;;;;;;;;4401736;32;20084;-62
2021/10/24 11:42:16;;;;;;;3.70;1.90;;;;;;;;;;4371870;32;20165;-62
2021/10/24 11:44:43;;;;;;;2.53;1.65;;;;;;;;;;4381673;32;20087;-63
2021/10/24 11:47:14;;;;;;;2.78;1.62;;;;;;;;;;4393972;32;20084;-63
2021/10/24 11:49:51;;;;;;;2.62;1.55;;;;;;;;;;4368939;32;20185;-63
2021/10/24 11:52:36;;;;;;;3.78;1.90;;;;;;;;;;4393303;32;20157;-62
2021/10/24 11:55:10;;;;;;;2.03;1.77;;;;;;;;;;4380844;32;20111;-63
2021/10/24 12:00:23;;;;;;;2.00;1.55;;;;;;;;;;4393425;32;20069;-63
2021/10/24 12:03:02;;;;;;;3.67;2.22;;;;;;;;;;4406178;32;20451;-63
2021/10/24 12:05:31;;;;;;;2.25;1.62;;;;;;;;;;4381086;32;20087;-63
2021/10/24 12:08:04;;;;;;;3.75;1.90;;;;;;;;;;4393241;32;20092;-63
2021/10/24 12:10:34;;;;;;;3.10;1.70;;;;;;;;;;4380981;32;20073;-61
2021/10/24 12:13:03;;;;;;;5.47;1.80;;;;;;;;;;4392909;32;20425;-62
2021/10/24 12:15:37;;;;;;;4.12;1.70;;;;;;;;;;4393096;32;20141;-63
2021/10/24 12:18:16;;;;;;;2.03;1.37;;;;;;;;;;4380614;32;20077;-63
2021/10/24 12:21:02;;;;;;;3.42;1.73;;;;;;;;;;3856415;37;20238;-63
2021/10/24 12:23:30;;;;;;;2.45;1.40;;;;;;;;;;4406535;32;20087;-63
2021/10/24 12:26:01;;;;;;;5.10;1.50;;;;;;;;;;4418527;32;20085;-61
2021/10/24 12:28:39;;;;;;;3.47;1.90;;;;;;;;;;4405985;32;20152;-62
2021/10/24 12:31:16;;;;;;;3.58;1.80;;;;;;;;;;4395990;32;20075;-62
2021/10/24 12:33:44;;;;;;;3.70;2.10;;;;;;;;;;4418453;32;20072;-63
2021/10/24 12:36:28;;;;;;;4.87;1.75;;;;;;;;;;4392887;32;20146;-63
2021/10/24 12:38:57;;;;;;;3.65;1.90;;;;;;;;;;4394565;32;20073;-61
2021/10/24 12:41:41;;;;;;;3.95;1.83;;;;;;;;;;4392995;32;20491;-62
2021/10/24 12:44:12;;;;;;;5.18;2.05;;;;;;;;;;4406101;32;20073;-63
2021/10/24 12:46:39;;;;;;;6.35;2.65;;;;;;;;;;4405756;32;20501;-63
2021/10/24 12:49:17;;;;;;;4.65;1.87;;;;;;;;;;4393615;32;20087;-61
2021/10/24 12:51:46;;;;;;;3.92;2.28;;;;;;;;;;4406004;32;20238;-62
2021/10/24 12:54:25;;;;;;;3.92;2.10;;;;;;;;;;4393229;32;20496;-63
2021/10/24 12:56:51;;;;;;;4.03;2.47;;;;;;;;;;4418427;32;20073;-63
2021/10/24 12:59:18;;;;;;;4.05;2.10;;;;;;;;;;4405862;32;20076;-61
2021/10/24 13:01:48;;;;;;;3.15;2.00;;;;;;;;;;4405899;32;20081;-64
2021/10/24 13:04:15;;;;;;;3.60;1.98;;;;;;;;;;4393264;32;20459;-62
2021/10/24 13:06:42;;;;;;;3.97;1.67;;;;;;;;;;4417831;32;20064;-62
2021/10/24 13:09:09;;;;;;;4.25;2.30;;;;;;;;;;4392739;32;20466;-61
2021/10/24 13:11:35;;;;;;;7.28;2.00;;;;;;;;;;4418280;32;20659;-63
2021/10/24 13:14:02;;;;;;;3.45;2.03;;;;;;;;;;4417970;32;20170;-62
2021/10/24 13:16:29;;;;;;;4.47;2.50;;;;;;;;;;4405414;32;20080;-62
2021/10/24 13:18:56;;;;;;;3.83;2.12;;;;;;;;;;4379945;32;20100;-63
2021/10/24 13:23:59;;;;;;;4.17;2.00;;;;;;;;;;4394702;32;20073;-63
2021/10/24 13:26:26;;;;;;;2.72;1.80;;;;;;;;;;4417541;32;20149;-63
2021/10/24 13:28:52;;;;;;;3.00;1.87;;;;;;;;;;4392355;32;20101;-61
2021/10/24 13:31:19;;;;;;;2.85;1.65;;;;;;;;;;4386709;32;20086;-63
2021/10/24 13:33:46;;;;;;;2.92;1.67;;;;;;;;;;4394963;32;20065;-63
2021/10/24 13:36:12;;;;;;;2.95;1.80;;;;;;;;;;4382326;32;20077;-64
2021/10/24 13:38:39;;;;;;;2.35;1.65;;;;;;;;;;4395054;32;20085;-63
2021/10/24 13:41:06;;;;;;;3.25;1.70;;;;;;;;;;4395077;32;20451;-62
2021/10/24 13:43:32;;;;;;;3.72;1.90;;;;;;;;;;4395082;32;20084;-62
2021/10/24 13:45:59;;;;;;;2.62;1.90;;;;;;;;;;4382621;32;20156;-62
2021/10/24 13:48:27;;;;;;;5.30;2.50;;;;;;;;;;4394765;32;20455;-62
2021/10/24 13:50:53;;;;;;;4.22;1.90;;;;;;;;;;4382396;32;20073;-61
2021/10/24 13:53:20;;;;;;;3.75;2.08;;;;;;;;;;4383758;32;20498;-62
2021/10/24 13:55:47;;;;;;;2.55;2.00;;;;;;;;;;4369984;32;20077;-62
2021/10/24 13:58:13;;;;;;;4.57;2.00;;;;;;;;;;4407833;32;20082;-61
2021/10/24 14:00:40;;;;;;;4.57;2.17;;;;;;;;;;4394876;32;20174;-62
2021/10/24 14:03:07;;;;;;;3.42;2.20;;;;;;;;;;4395374;32;20177;-62
2021/10/24 14:05:34;;;;;;;4.68;2.30;;;;;;;;;;4395347;32;20116;-63
2021/10/24 14:08:01;;;;;;;4.30;2.92;;;;;;;;;;4396178;32;20169;-63
2021/10/24 14:10:28;;;;;;;6.55;2.87;;;;;;;;;;4370949;32;20081;-62
2021/10/24 14:12:55;;;;;;;4.18;2.30;;;;;;;;;;4382261;32;20438;-62
2021/10/24 14:15:22;;;;;;;7.07;2.42;;;;;;;;;;4408752;32;20089;-61
2021/10/24 14:17:49;;;;;;;4.25;2.40;;;;;;;;;;4381895;32;20083;-63
2021/10/24 14:20:16;;;;;;;5.20;3.33;;;;;;;;;;4369145;32;20078;-63
2021/10/24 14:22:43;;;;;;;6.78;3.20;;;;;;;;;;4407028;32;20073;-62
2021/10/24 14:25:10;;;;;;;4.37;2.50;;;;;;;;;;4381844;32;20447;-63
2021/10/24 14:27:37;;;;;;;4.00;2.60;;;;;;;;;;4369638;32;20082;-63
2021/10/24 14:30:04;;;;;;;3.03;2.35;;;;;;;;;;4369214;32;20089;-63
2021/10/24 14:32:31;;;;;;;2.22;1.70;;;;;;;;;;4381206;32;20086;-63
2021/10/24 14:34:58;;;;;;;3.83;2.10;;;;;;;;;;4406873;32;20097;-63
2021/10/24 14:37:25;;;;;;;4.93;2.00;;;;;;;;;;4406491;32;20077;-62
2021/10/24 14:39:52;;;;;;;4.03;2.20;;;;;;;;;;4393798;32;20073;-62
2021/10/24 14:42:19;;;;;;;3.05;1.98;;;;;;;;;;4393566;32;20499;-62
2021/10/24 14:44:46;;;;;;;4.85;2.10;;;;;;;;;;4406346;32;20168;-61
2021/10/24 14:47:13;;;;;;;3.85;2.03;;;;;;;;;;4381351;32;20069;-63
2021/10/24 14:49:39;;;;;;;4.75;2.50;;;;;;;;;;4394637;32;20096;-62
2021/10/24 14:52:06;;;;;;;4.18;2.20;;;;;;;;;;4397689;32;20077;-62
2021/10/24 14:54:33;;;;;;;4.05;2.60;;;;;;;;;;4389588;32;20508;-63
2021/10/24 14:57:00;;;;;;;9.23;2.75;;;;;;;;;;4388054;32;20093;-65